sensor_id;sensor_type;location;lat;lon;timestamp;P1;durP1;ratioP1;P2;durP2;ratioP2
19084;SDS011;9675;51.538;6.728;2024-02-04T00:00:45;17.03;;;7.57;;
19084;SDS011;9675;51.538;6.728;2024-02-04T00:03:13;11.87;;;7.27;;
19084;SDS011;9675;51.538;6.728;2024-02-04T00:05:40;12.07;;;7.27;;
19084;SDS011;9675;51.538;6.728;2024-02-04T00:08:07;13.03;;;6.33;;
19084;SDS011;9675;51.538;6.728;2024-02-04T00:10:34;10.27;;;5.77;;
19084;SDS011;9675;51.538;6.728;2024-02-04T00:13:01;13.40;;;6.80;;
19084;SDS011;9675;51.538;6.728;2024-02-04T00:15:30;9.00;;;5.27;;
19084;SDS011;9675;51.538;6.728;2024-02-04T00:17:57;10.70;;;6.17;;
19084;SDS011;9675;51.538;6.728;2024-02-04T00:20:24;9.47;;;4.80;;
19084;SDS011;9675;51.538;6.728;2024-02-04T00:22:52;9.33;;;5.10;;
19084;SDS011;9675;51.538;6.728;2024-02-04T00:25:19;7.37;;;3.53;;
19084;SDS011;9675;51.538;6.728;2024-02-04T00:27:46;7.57;;;3.70;;
19084;SDS011;9675;51.538;6.728;2024-02-04T00:30:13;5.53;;;3.00;;
19084;SDS011;9675;51.538;6.728;2024-02-04T00:32:42;6.37;;;2.77;;
19084;SDS011;9675;51.538;6.728;2024-02-04T00:35:09;8.27;;;3.00;;
19084;SDS011;9675;51.538;6.728;2024-02-04T00:37:36;5.13;;;3.40;;
19084;SDS011;9675;51.538;6.728;2024-02-04T00:40:03;5.73;;;2.10;;
19084;SDS011;9675;51.538;6.728;2024-02-04T00:42:32;3.83;;;2.40;;
19084;SDS011;9675;51.538;6.728;2024-02-04T00:44:59;4.37;;;3.20;;
19084;SDS011;9675;51.538;6.728;2024-02-04T00:47:26;4.90;;;2.50;;
19084;SDS011;9675;51.538;6.728;2024-02-04T00:49:54;3.77;;;2.73;;
19084;SDS011;9675;51.538;6.728;2024-02-04T00:52:21;4.50;;;2.43;;
19084;SDS011;9675;51.538;6.728;2024-02-04T00:54:48;5.03;;;3.10;;
19084;SDS011;9675;51.538;6.728;2024-02-04T00:57:15;4.30;;;2.40;;
19084;SDS011;9675;51.538;6.728;2024-02-04T00:59:42;2.90;;;1.97;;
19084;SDS011;9675;51.538;6.728;2024-02-04T01:02:09;4.33;;;3.13;;
19084;SDS011;9675;51.538;6.728;2024-02-04T01:04:36;3.27;;;2.23;;
19084;SDS011;9675;51.538;6.728;2024-02-04T01:07:05;4.03;;;2.87;;
19084;SDS011;9675;51.538;6.728;2024-02-04T01:09:32;3.43;;;2.17;;
19084;SDS011;9675;51.538;6.728;2024-02-04T01:11:59;3.90;;;2.33;;
19084;SDS011;9675;51.538;6.728;2024-02-04T01:14:26;4.23;;;2.63;;
19084;SDS011;9675;51.538;6.728;2024-02-04T01:16:53;4.83;;;2.33;;
19084;SDS011;9675;51.538;6.728;2024-02-04T01:19:20;0.77;;;0.60;;
19084;SDS011;9675;51.538;6.728;2024-02-04T01:21:47;5.43;;;2.77;;
19084;SDS011;9675;51.538;6.728;2024-02-04T01:24:16;6.33;;;3.17;;
19084;SDS011;9675;51.538;6.728;2024-02-04T01:26:43;5.17;;;3.37;;
19084;SDS011;9675;51.538;6.728;2024-02-04T01:29:10;8.23;;;4.00;;
19084;SDS011;9675;51.538;6.728;2024-02-04T01:31:37;5.20;;;3.63;;
19084;SDS011;9675;51.538;6.728;2024-02-04T01:34:04;5.77;;;3.40;;
19084;SDS011;9675;51.538;6.728;2024-02-04T01:36:31;5.57;;;3.30;;
19084;SDS011;9675;51.538;6.728;2024-02-04T01:38:58;14.03;;;6.83;;
19084;SDS011;9675;51.538;6.728;2024-02-04T01:41:26;8.33;;;4.93;;
19084;SDS011;9675;51.538;6.728;2024-02-04T01:43:53;6.17;;;3.80;;
19084;SDS011;9675;51.538;6.728;2024-02-04T01:46:21;8.10;;;4.20;;
19084;SDS011;9675;51.538;6.728;2024-02-04T01:48:48;9.70;;;5.60;;
19084;SDS011;9675;51.538;6.728;2024-02-04T01:51:16;6.13;;;3.67;;
19084;SDS011;9675;51.538;6.728;2024-02-04T01:53:46;3.70;;;2.67;;
19084;SDS011;9675;51.538;6.728;2024-02-04T01:56:14;8.07;;;5.23;;
19084;SDS011;9675;51.538;6.728;2024-02-04T01:58:45;6.27;;;3.97;;
19084;SDS011;9675;51.538;6.728;2024-02-04T02:01:13;8.93;;;4.33;;
19084;SDS011;9675;51.538;6.728;2024-02-04T02:03:41;6.03;;;3.17;;
19084;SDS011;9675;51.538;6.728;2024-02-04T02:06:08;5.87;;;3.67;;
19084;SDS011;9675;51.538;6.728;2024-02-04T02:08:36;6.43;;;3.93;;
19084;SDS011;9675;51.538;6.728;2024-02-04T02:11:05;6.10;;;4.10;;
19084;SDS011;9675;51.538;6.728;2024-02-04T02:13:43;6.10;;;3.87;;
19084;SDS011;9675;51.538;6.728;2024-02-04T02:16:17;3.73;;;1.20;;
19084;SDS011;9675;51.538;6.728;2024-02-04T02:18:50;6.70;;;3.67;;
19084;SDS011;9675;51.538;6.728;2024-02-04T02:21:31;7.77;;;3.77;;
19084;SDS011;9675;51.538;6.728;2024-02-04T02:24:14;9.93;;;5.20;;
19084;SDS011;9675;51.538;6.728;2024-02-04T02:26:52;6.27;;;3.03;;
19084;SDS011;9675;51.538;6.728;2024-02-04T02:29:22;8.60;;;5.13;;
19084;SDS011;9675;51.538;6.728;2024-02-04T02:31:49;6.17;;;3.80;;
19084;SDS011;9675;51.538;6.728;2024-02-04T02:34:16;7.80;;;4.53;;
19084;SDS011;9675;51.538;6.728;2024-02-04T02:36:44;4.33;;;2.80;;
19084;SDS011;9675;51.538;6.728;2024-02-04T02:39:20;8.30;;;4.30;;
19084;SDS011;9675;51.538;6.728;2024-02-04T02:41:57;5.63;;;3.20;;
19084;SDS011;9675;51.538;6.728;2024-02-04T02:44:30;9.37;;;5.33;;
19084;SDS011;9675;51.538;6.728;2024-02-04T02:46:58;9.40;;;5.37;;
19084;SDS011;9675;51.538;6.728;2024-02-04T02:49:28;13.43;;;6.23;;
19084;SDS011;9675;51.538;6.728;2024-02-04T02:51:55;10.20;;;5.67;;
19084;SDS011;9675;51.538;6.728;2024-02-04T02:54:23;10.30;;;5.27;;
19084;SDS011;9675;51.538;6.728;2024-02-04T02:56:51;11.90;;;5.93;;
19084;SDS011;9675;51.538;6.728;2024-02-04T02:59:18;11.83;;;4.77;;
19084;SDS011;9675;51.538;6.728;2024-02-04T03:01:45;12.30;;;6.00;;
19084;SDS011;9675;51.538;6.728;2024-02-04T03:04:12;13.37;;;5.80;;
19084;SDS011;9675;51.538;6.728;2024-02-04T03:06:39;13.83;;;6.83;;
19084;SDS011;9675;51.538;6.728;2024-02-04T03:09:06;10.00;;;5.97;;
19084;SDS011;9675;51.538;6.728;2024-02-04T03:11:33;10.33;;;5.77;;
19084;SDS011;9675;51.538;6.728;2024-02-04T03:14:04;10.00;;;5.80;;
19084;SDS011;9675;51.538;6.728;2024-02-04T03:16:31;14.53;;;7.50;;
19084;SDS011;9675;51.538;6.728;2024-02-04T03:18:58;14.07;;;7.00;;
19084;SDS011;9675;51.538;6.728;2024-02-04T03:21:25;11.37;;;3.67;;
19084;SDS011;9675;51.538;6.728;2024-02-04T03:23:52;13.47;;;6.77;;
19084;SDS011;9675;51.538;6.728;2024-02-04T03:26:19;16.67;;;6.90;;
19084;SDS011;9675;51.538;6.728;2024-02-04T03:28:46;17.77;;;6.10;;
19084;SDS011;9675;51.538;6.728;2024-02-04T03:31:20;11.30;;;6.40;;
19084;SDS011;9675;51.538;6.728;2024-02-04T03:33:48;13.47;;;7.40;;
19084;SDS011;9675;51.538;6.728;2024-02-04T03:36:17;12.80;;;6.60;;
19084;SDS011;9675;51.538;6.728;2024-02-04T03:38:48;15.00;;;7.13;;
19084;SDS011;9675;51.538;6.728;2024-02-04T03:41:15;11.67;;;6.03;;
19084;SDS011;9675;51.538;6.728;2024-02-04T03:43:42;14.40;;;7.30;;
19084;SDS011;9675;51.538;6.728;2024-02-04T03:46:12;13.20;;;6.77;;
19084;SDS011;9675;51.538;6.728;2024-02-04T03:48:42;13.77;;;7.47;;
19084;SDS011;9675;51.538;6.728;2024-02-04T03:51:14;13.10;;;7.10;;
19084;SDS011;9675;51.538;6.728;2024-02-04T03:53:42;12.87;;;7.27;;
19084;SDS011;9675;51.538;6.728;2024-02-04T03:56:10;13.77;;;7.83;;
19084;SDS011;9675;51.538;6.728;2024-02-04T03:58:37;17.33;;;7.17;;
19084;SDS011;9675;51.538;6.728;2024-02-04T04:01:04;17.70;;;7.70;;
19084;SDS011;9675;51.538;6.728;2024-02-04T04:03:31;14.23;;;7.00;;
19084;SDS011;9675;51.538;6.728;2024-02-04T04:05:59;15.53;;;7.03;;
19084;SDS011;9675;51.538;6.728;2024-02-04T04:08:26;14.90;;;8.17;;
19084;SDS011;9675;51.538;6.728;2024-02-04T04:10:53;15.73;;;8.43;;
19084;SDS011;9675;51.538;6.728;2024-02-04T04:13:20;17.10;;;7.80;;
19084;SDS011;9675;51.538;6.728;2024-02-04T04:15:47;18.20;;;7.23;;
19084;SDS011;9675;51.538;6.728;2024-02-04T04:18:14;19.20;;;8.50;;
19084;SDS011;9675;51.538;6.728;2024-02-04T04:20:41;15.10;;;7.23;;
19084;SDS011;9675;51.538;6.728;2024-02-04T04:23:10;15.93;;;8.43;;
19084;SDS011;9675;51.538;6.728;2024-02-04T04:25:38;14.43;;;7.43;;
19084;SDS011;9675;51.538;6.728;2024-02-04T04:28:05;12.53;;;6.57;;
19084;SDS011;9675;51.538;6.728;2024-02-04T04:30:32;19.00;;;9.10;;
19084;SDS011;9675;51.538;6.728;2024-02-04T04:32:59;13.53;;;6.60;;
19084;SDS011;9675;51.538;6.728;2024-02-04T04:35:26;18.40;;;9.03;;
19084;SDS011;9675;51.538;6.728;2024-02-04T04:37:53;19.47;;;9.23;;
19084;SDS011;9675;51.538;6.728;2024-02-04T04:40:22;17.10;;;6.77;;
19084;SDS011;9675;51.538;6.728;2024-02-04T04:42:49;12.00;;;7.53;;
19084;SDS011;9675;51.538;6.728;2024-02-04T04:45:16;6.07;;;2.93;;
19084;SDS011;9675;51.538;6.728;2024-02-04T04:47:43;18.23;;;8.00;;
19084;SDS011;9675;51.538;6.728;2024-02-04T04:50:10;19.03;;;7.13;;
19084;SDS011;9675;51.538;6.728;2024-02-04T04:52:37;14.13;;;6.97;;
19084;SDS011;9675;51.538;6.728;2024-02-04T04:55:04;12.07;;;6.27;;
19084;SDS011;9675;51.538;6.728;2024-02-04T04:57:33;6.93;;;3.70;;
19084;SDS011;9675;51.538;6.728;2024-02-04T05:00:00;12.87;;;6.80;;
19084;SDS011;9675;51.538;6.728;2024-02-04T05:02:31;17.73;;;7.10;;
19084;SDS011;9675;51.538;6.728;2024-02-04T05:04:58;14.43;;;6.50;;
19084;SDS011;9675;51.538;6.728;2024-02-04T05:07:25;8.93;;;5.37;;
19084;SDS011;9675;51.538;6.728;2024-02-04T05:09:52;11.03;;;6.47;;
19084;SDS011;9675;51.538;6.728;2024-02-04T05:12:19;16.70;;;7.03;;
19084;SDS011;9675;51.538;6.728;2024-02-04T05:14:48;11.03;;;5.20;;
19084;SDS011;9675;51.538;6.728;2024-02-04T05:17:15;20.50;;;7.20;;
19084;SDS011;9675;51.538;6.728;2024-02-04T05:19:42;19.30;;;6.17;;
19084;SDS011;9675;51.538;6.728;2024-02-04T05:22:09;13.70;;;6.93;;
19084;SDS011;9675;51.538;6.728;2024-02-04T05:24:36;13.00;;;7.23;;
19084;SDS011;9675;51.538;6.728;2024-02-04T05:27:04;12.33;;;6.23;;
19084;SDS011;9675;51.538;6.728;2024-02-04T05:29:31;14.97;;;8.00;;
19084;SDS011;9675;51.538;6.728;2024-02-04T05:31:59;14.87;;;6.50;;
19084;SDS011;9675;51.538;6.728;2024-02-04T05:34:26;18.63;;;8.47;;
19084;SDS011;9675;51.538;6.728;2024-02-04T05:36:55;12.50;;;6.57;;
19084;SDS011;9675;51.538;6.728;2024-02-04T05:39:22;17.20;;;7.00;;
19084;SDS011;9675;51.538;6.728;2024-02-04T05:41:49;16.43;;;8.90;;
19084;SDS011;9675;51.538;6.728;2024-02-04T05:44:16;19.97;;;8.00;;
19084;SDS011;9675;51.538;6.728;2024-02-04T05:46:43;13.50;;;7.87;;
19084;SDS011;9675;51.538;6.728;2024-02-04T05:49:12;13.77;;;7.07;;
19084;SDS011;9675;51.538;6.728;2024-02-04T05:51:39;20.53;;;8.43;;
19084;SDS011;9675;51.538;6.728;2024-02-04T05:54:08;15.00;;;7.10;;
19084;SDS011;9675;51.538;6.728;2024-02-04T05:56:35;16.23;;;7.90;;
19084;SDS011;9675;51.538;6.728;2024-02-04T05:59:02;13.27;;;6.73;;
19084;SDS011;9675;51.538;6.728;2024-02-04T06:01:30;14.20;;;6.07;;
19084;SDS011;9675;51.538;6.728;2024-02-04T06:03:58;16.33;;;6.70;;
19084;SDS011;9675;51.538;6.728;2024-02-04T06:06:26;13.93;;;6.53;;
19084;SDS011;9675;51.538;6.728;2024-02-04T06:08:53;15.33;;;8.23;;
19084;SDS011;9675;51.538;6.728;2024-02-04T06:11:20;22.30;;;7.47;;
19084;SDS011;9675;51.538;6.728;2024-02-04T06:13:47;12.87;;;6.63;;
19084;SDS011;9675;51.538;6.728;2024-02-04T06:16:15;12.10;;;5.97;;
19084;SDS011;9675;51.538;6.728;2024-02-04T06:18:42;10.90;;;6.47;;
19084;SDS011;9675;51.538;6.728;2024-02-04T06:21:09;12.60;;;6.67;;
19084;SDS011;9675;51.538;6.728;2024-02-04T06:23:37;22.27;;;9.03;;
19084;SDS011;9675;51.538;6.728;2024-02-04T06:26:05;17.80;;;8.17;;
19084;SDS011;9675;51.538;6.728;2024-02-04T06:28:32;22.03;;;10.53;;
19084;SDS011;9675;51.538;6.728;2024-02-04T06:30:59;21.60;;;10.30;;
19084;SDS011;9675;51.538;6.728;2024-02-04T06:33:27;17.17;;;8.30;;
19084;SDS011;9675;51.538;6.728;2024-02-04T06:35:54;22.47;;;10.70;;
19084;SDS011;9675;51.538;6.728;2024-02-04T06:38:22;24.40;;;9.67;;
19084;SDS011;9675;51.538;6.728;2024-02-04T06:40:50;25.37;;;11.53;;
19084;SDS011;9675;51.538;6.728;2024-02-04T06:43:17;19.90;;;10.50;;
19084;SDS011;9675;51.538;6.728;2024-02-04T06:45:43;19.70;;;9.47;;
19084;SDS011;9675;51.538;6.728;2024-02-04T06:48:11;27.33;;;12.80;;
19084;SDS011;9675;51.538;6.728;2024-02-04T06:50:39;22.23;;;11.97;;
19084;SDS011;9675;51.538;6.728;2024-02-04T06:53:06;19.60;;;10.57;;
19084;SDS011;9675;51.538;6.728;2024-02-04T06:55:33;21.37;;;9.87;;
19084;SDS011;9675;51.538;6.728;2024-02-04T06:58:01;18.70;;;8.57;;
19084;SDS011;9675;51.538;6.728;2024-02-04T07:00:28;30.00;;;11.00;;
19084;SDS011;9675;51.538;6.728;2024-02-04T07:02:55;29.03;;;12.40;;
19084;SDS011;9675;51.538;6.728;2024-02-04T07:05:22;19.33;;;9.47;;
19084;SDS011;9675;51.538;6.728;2024-02-04T07:07:50;23.03;;;9.90;;
19084;SDS011;9675;51.538;6.728;2024-02-04T07:10:17;22.90;;;12.00;;
19084;SDS011;9675;51.538;6.728;2024-02-04T07:12:44;24.43;;;11.63;;
19084;SDS011;9675;51.538;6.728;2024-02-04T07:15:13;23.17;;;10.57;;
19084;SDS011;9675;51.538;6.728;2024-02-04T07:17:40;20.47;;;11.37;;
19084;SDS011;9675;51.538;6.728;2024-02-04T07:20:07;18.70;;;8.97;;
19084;SDS011;9675;51.538;6.728;2024-02-04T07:22:34;18.50;;;8.73;;
19084;SDS011;9675;51.538;6.728;2024-02-04T07:25:01;19.87;;;9.63;;
19084;SDS011;9675;51.538;6.728;2024-02-04T07:27:29;31.17;;;11.90;;
19084;SDS011;9675;51.538;6.728;2024-02-04T07:29:57;17.20;;;8.17;;
19084;SDS011;9675;51.538;6.728;2024-02-04T07:32:30;18.57;;;9.37;;
19084;SDS011;9675;51.538;6.728;2024-02-04T07:34:59;25.37;;;11.20;;
19084;SDS011;9675;51.538;6.728;2024-02-04T07:37:26;20.50;;;8.70;;
19084;SDS011;9675;51.538;6.728;2024-02-04T07:39:53;17.07;;;8.43;;
19084;SDS011;9675;51.538;6.728;2024-02-04T07:42:20;13.70;;;6.03;;
19084;SDS011;9675;51.538;6.728;2024-02-04T07:44:47;21.10;;;10.33;;
19084;SDS011;9675;51.538;6.728;2024-02-04T07:47:15;17.03;;;8.37;;
19084;SDS011;9675;51.538;6.728;2024-02-04T07:49:46;19.20;;;8.97;;
19084;SDS011;9675;51.538;6.728;2024-02-04T07:52:13;11.27;;;6.60;;
19084;SDS011;9675;51.538;6.728;2024-02-04T07:54:41;15.03;;;6.37;;
19084;SDS011;9675;51.538;6.728;2024-02-04T07:57:09;17.10;;;7.47;;
19084;SDS011;9675;51.538;6.728;2024-02-04T07:59:37;14.70;;;6.97;;
19084;SDS011;9675;51.538;6.728;2024-02-04T08:02:04;11.47;;;5.90;;
19084;SDS011;9675;51.538;6.728;2024-02-04T08:04:32;11.17;;;6.27;;
19084;SDS011;9675;51.538;6.728;2024-02-04T08:07:00;8.87;;;4.13;;
19084;SDS011;9675;51.538;6.728;2024-02-04T08:09:29;9.40;;;4.87;;
19084;SDS011;9675;51.538;6.728;2024-02-04T08:11:56;12.23;;;4.03;;
19084;SDS011;9675;51.538;6.728;2024-02-04T08:14:23;9.30;;;3.90;;
19084;SDS011;9675;51.538;6.728;2024-02-04T08:16:50;6.00;;;3.60;;
19084;SDS011;9675;51.538;6.728;2024-02-04T08:19:17;7.43;;;3.80;;
19084;SDS011;9675;51.538;6.728;2024-02-04T08:21:44;9.80;;;4.03;;
19084;SDS011;9675;51.538;6.728;2024-02-04T08:24:13;5.33;;;2.70;;
19084;SDS011;9675;51.538;6.728;2024-02-04T08:26:40;5.47;;;3.20;;
19084;SDS011;9675;51.538;6.728;2024-02-04T08:29:07;7.87;;;3.97;;
19084;SDS011;9675;51.538;6.728;2024-02-04T08:31:34;5.80;;;3.23;;
19084;SDS011;9675;51.538;6.728;2024-02-04T08:34:01;5.03;;;2.37;;
19084;SDS011;9675;51.538;6.728;2024-02-04T08:36:28;5.03;;;2.97;;
19084;SDS011;9675;51.538;6.728;2024-02-04T08:38:56;12.37;;;4.13;;
19084;SDS011;9675;51.538;6.728;2024-02-04T08:41:24;6.57;;;3.30;;
19084;SDS011;9675;51.538;6.728;2024-02-04T08:43:51;8.73;;;4.47;;
19084;SDS011;9675;51.538;6.728;2024-02-04T08:46:18;8.00;;;3.77;;
19084;SDS011;9675;51.538;6.728;2024-02-04T08:48:45;6.53;;;3.43;;
19084;SDS011;9675;51.538;6.728;2024-02-04T08:51:12;10.63;;;4.23;;
19084;SDS011;9675;51.538;6.728;2024-02-04T08:53:41;7.60;;;4.03;;
19084;SDS011;9675;51.538;6.728;2024-02-04T08:56:08;10.20;;;4.00;;
19084;SDS011;9675;51.538;6.728;2024-02-04T08:58:37;10.63;;;4.37;;
19084;SDS011;9675;51.538;6.728;2024-02-04T09:01:04;6.90;;;4.03;;
19084;SDS011;9675;51.538;6.728;2024-02-04T09:03:31;7.43;;;3.83;;
19084;SDS011;9675;51.538;6.728;2024-02-04T09:05:59;8.63;;;4.80;;
19084;SDS011;9675;51.538;6.728;2024-02-04T09:08:26;10.00;;;6.57;;
19084;SDS011;9675;51.538;6.728;2024-02-04T09:10:53;13.40;;;5.53;;
19084;SDS011;9675;51.538;6.728;2024-02-04T09:13:20;14.20;;;6.40;;
19084;SDS011;9675;51.538;6.728;2024-02-04T09:15:48;13.83;;;5.97;;
19084;SDS011;9675;51.538;6.728;2024-02-04T09:18:16;15.60;;;7.03;;
19084;SDS011;9675;51.538;6.728;2024-02-04T09:20:43;12.70;;;6.50;;
19084;SDS011;9675;51.538;6.728;2024-02-04T09:23:11;12.10;;;5.80;;
19084;SDS011;9675;51.538;6.728;2024-02-04T09:25:38;8.77;;;4.80;;
19084;SDS011;9675;51.538;6.728;2024-02-04T09:28:05;14.23;;;7.37;;
19084;SDS011;9675;51.538;6.728;2024-02-04T09:30:32;14.30;;;7.33;;
19084;SDS011;9675;51.538;6.728;2024-02-04T09:33:00;17.13;;;6.90;;
19084;SDS011;9675;51.538;6.728;2024-02-04T09:35:28;13.23;;;6.00;;
19084;SDS011;9675;51.538;6.728;2024-02-04T09:37:55;11.67;;;5.50;;
19084;SDS011;9675;51.538;6.728;2024-02-04T09:40:22;11.03;;;5.83;;
19084;SDS011;9675;51.538;6.728;2024-02-04T09:42:50;13.07;;;6.80;;
19084;SDS011;9675;51.538;6.728;2024-02-04T09:45:17;10.77;;;5.80;;
19084;SDS011;9675;51.538;6.728;2024-02-04T09:47:45;11.50;;;5.43;;
19084;SDS011;9675;51.538;6.728;2024-02-04T09:50:14;14.00;;;6.30;;
19084;SDS011;9675;51.538;6.728;2024-02-04T09:52:41;11.70;;;6.13;;
19084;SDS011;9675;51.538;6.728;2024-02-04T09:55:15;11.57;;;5.90;;
19084;SDS011;9675;51.538;6.728;2024-02-04T09:57:46;12.30;;;6.17;;
19084;SDS011;9675;51.538;6.728;2024-02-04T10:00:13;14.47;;;5.70;;
19084;SDS011;9675;51.538;6.728;2024-02-04T10:02:45;14.77;;;6.33;;
19084;SDS011;9675;51.538;6.728;2024-02-04T10:05:16;11.27;;;5.90;;
19084;SDS011;9675;51.538;6.728;2024-02-04T10:07:43;13.20;;;5.43;;
19084;SDS011;9675;51.538;6.728;2024-02-04T10:10:10;10.17;;;5.40;;
19084;SDS011;9675;51.538;6.728;2024-02-04T10:12:38;10.07;;;4.73;;
19084;SDS011;9675;51.538;6.728;2024-02-04T10:15:09;11.93;;;6.03;;
19084;SDS011;9675;51.538;6.728;2024-02-04T10:17:41;13.03;;;5.67;;
19084;SDS011;9675;51.538;6.728;2024-02-04T10:20:09;8.67;;;4.67;;
19084;SDS011;9675;51.538;6.728;2024-02-04T10:22:38;9.40;;;4.07;;
19084;SDS011;9675;51.538;6.728;2024-02-04T10:25:06;10.67;;;5.13;;
19084;SDS011;9675;51.538;6.728;2024-02-04T10:27:34;13.17;;;5.07;;
19084;SDS011;9675;51.538;6.728;2024-02-04T10:30:01;9.13;;;3.97;;
19084;SDS011;9675;51.538;6.728;2024-02-04T10:32:29;16.93;;;6.60;;
19084;SDS011;9675;51.538;6.728;2024-02-04T10:34:57;5.60;;;3.17;;
19084;SDS011;9675;51.538;6.728;2024-02-04T10:37:26;10.73;;;5.83;;
19084;SDS011;9675;51.538;6.728;2024-02-04T10:39:54;12.73;;;5.17;;
19084;SDS011;9675;51.538;6.728;2024-02-04T10:42:22;13.07;;;6.60;;
19084;SDS011;9675;51.538;6.728;2024-02-04T10:44:53;17.13;;;7.73;;
19084;SDS011;9675;51.538;6.728;2024-02-04T10:47:22;15.63;;;7.77;;
19084;SDS011;9675;51.538;6.728;2024-02-04T10:49:58;16.23;;;7.50;;
19084;SDS011;9675;51.538;6.728;2024-02-04T10:52:31;8.53;;;4.57;;
19084;SDS011;9675;51.538;6.728;2024-02-04T10:55:07;11.60;;;7.20;;
19084;SDS011;9675;51.538;6.728;2024-02-04T10:57:37;10.67;;;5.93;;
19084;SDS011;9675;51.538;6.728;2024-02-04T11:00:05;9.60;;;4.80;;
19084;SDS011;9675;51.538;6.728;2024-02-04T11:02:37;15.43;;;6.70;;
19084;SDS011;9675;51.538;6.728;2024-02-04T11:05:07;11.13;;;4.77;;
19084;SDS011;9675;51.538;6.728;2024-02-04T11:07:36;10.43;;;5.33;;
19084;SDS011;9675;51.538;6.728;2024-02-04T11:10:04;8.07;;;4.43;;
19084;SDS011;9675;51.538;6.728;2024-02-04T11:12:34;6.00;;;3.40;;
19084;SDS011;9675;51.538;6.728;2024-02-04T11:15:04;10.37;;;4.73;;
19084;SDS011;9675;51.538;6.728;2024-02-04T11:21:18;4.70;;;2.40;;
19084;SDS011;9675;51.538;6.728;2024-02-04T11:24:21;8.20;;;2.90;;
19084;SDS011;9675;51.538;6.728;2024-02-04T11:27:17;4.40;;;1.97;;
19084;SDS011;9675;51.538;6.728;2024-02-04T11:29:45;5.73;;;2.10;;
19084;SDS011;9675;51.538;6.728;2024-02-04T11:32:12;4.70;;;2.63;;
19084;SDS011;9675;51.538;6.728;2024-02-04T11:34:40;4.60;;;2.27;;
19084;SDS011;9675;51.538;6.728;2024-02-04T11:37:15;3.87;;;2.20;;
19084;SDS011;9675;51.538;6.728;2024-02-04T11:39:50;2.73;;;1.83;;
19084;SDS011;9675;51.538;6.728;2024-02-04T11:42:20;3.37;;;2.00;;
19084;SDS011;9675;51.538;6.728;2024-02-04T11:44:49;4.07;;;2.17;;
19084;SDS011;9675;51.538;6.728;2024-02-04T11:47:33;4.67;;;2.43;;
19084;SDS011;9675;51.538;6.728;2024-02-04T11:50:00;2.37;;;1.47;;
19084;SDS011;9675;51.538;6.728;2024-02-04T11:52:29;3.10;;;1.83;;
19084;SDS011;9675;51.538;6.728;2024-02-04T11:54:56;4.10;;;2.13;;
19084;SDS011;9675;51.538;6.728;2024-02-04T11:57:25;4.10;;;1.83;;
19084;SDS011;9675;51.538;6.728;2024-02-04T11:59:52;4.30;;;1.80;;
19084;SDS011;9675;51.538;6.728;2024-02-04T12:02:20;2.40;;;2.00;;
19084;SDS011;9675;51.538;6.728;2024-02-04T12:04:48;3.90;;;2.33;;
19084;SDS011;9675;51.538;6.728;2024-02-04T12:07:15;3.93;;;2.07;;
19084;SDS011;9675;51.538;6.728;2024-02-04T12:09:44;5.57;;;2.03;;
19084;SDS011;9675;51.538;6.728;2024-02-04T12:12:11;5.37;;;2.30;;
19084;SDS011;9675;51.538;6.728;2024-02-04T12:14:40;4.90;;;2.77;;
19084;SDS011;9675;51.538;6.728;2024-02-04T12:17:09;4.17;;;2.63;;
19084;SDS011;9675;51.538;6.728;2024-02-04T12:19:37;7.93;;;3.97;;
19084;SDS011;9675;51.538;6.728;2024-02-04T12:22:04;4.47;;;2.27;;
19084;SDS011;9675;51.538;6.728;2024-02-04T12:24:34;3.67;;;1.37;;
19084;SDS011;9675;51.538;6.728;2024-02-04T12:27:03;4.13;;;2.93;;
19084;SDS011;9675;51.538;6.728;2024-02-04T12:29:32;4.70;;;2.47;;
19084;SDS011;9675;51.538;6.728;2024-02-04T12:32:00;7.97;;;4.03;;
19084;SDS011;9675;51.538;6.728;2024-02-04T12:34:29;7.20;;;3.63;;
19084;SDS011;9675;51.538;6.728;2024-02-04T12:36:57;5.40;;;2.53;;
19084;SDS011;9675;51.538;6.728;2024-02-04T12:39:25;5.10;;;2.63;;
19084;SDS011;9675;51.538;6.728;2024-02-04T12:41:52;11.30;;;4.03;;
19084;SDS011;9675;51.538;6.728;2024-02-04T12:44:19;5.30;;;3.13;;
19084;SDS011;9675;51.538;6.728;2024-02-04T12:46:49;9.47;;;5.17;;
19084;SDS011;9675;51.538;6.728;2024-02-04T12:49:20;14.13;;;6.47;;
19084;SDS011;9675;51.538;6.728;2024-02-04T12:51:48;6.10;;;3.50;;
19084;SDS011;9675;51.538;6.728;2024-02-04T12:54:17;7.53;;;4.90;;
19084;SDS011;9675;51.538;6.728;2024-02-04T12:56:45;8.60;;;4.97;;
19084;SDS011;9675;51.538;6.728;2024-02-04T13:02:01;7.07;;;3.43;;
19084;SDS011;9675;51.538;6.728;2024-02-04T13:04:34;6.63;;;3.30;;
19084;SDS011;9675;51.538;6.728;2024-02-04T13:07:06;6.50;;;3.53;;
19084;SDS011;9675;51.538;6.728;2024-02-04T13:09:34;6.80;;;4.00;;
19084;SDS011;9675;51.538;6.728;2024-02-04T13:12:02;6.97;;;3.50;;
19084;SDS011;9675;51.538;6.728;2024-02-04T13:14:30;5.30;;;3.13;;
19084;SDS011;9675;51.538;6.728;2024-02-04T13:16:58;3.60;;;2.47;;
19084;SDS011;9675;51.538;6.728;2024-02-04T13:19:25;4.77;;;2.47;;
19084;SDS011;9675;51.538;6.728;2024-02-04T13:22:00;6.50;;;3.80;;
19084;SDS011;9675;51.538;6.728;2024-02-04T13:24:28;5.07;;;2.80;;
19084;SDS011;9675;51.538;6.728;2024-02-04T13:26:55;5.80;;;2.63;;
19084;SDS011;9675;51.538;6.728;2024-02-04T13:29:23;4.73;;;2.67;;
19084;SDS011;9675;51.538;6.728;2024-02-04T13:31:50;2.83;;;2.20;;
19084;SDS011;9675;51.538;6.728;2024-02-04T13:34:17;7.77;;;4.07;;
19084;SDS011;9675;51.538;6.728;2024-02-04T13:36:45;5.20;;;2.80;;
19084;SDS011;9675;51.538;6.728;2024-02-04T13:39:14;5.33;;;2.83;;
19084;SDS011;9675;51.538;6.728;2024-02-04T13:41:43;3.60;;;2.57;;
19084;SDS011;9675;51.538;6.728;2024-02-04T13:44:10;3.57;;;2.20;;
19084;SDS011;9675;51.538;6.728;2024-02-04T13:46:38;5.67;;;3.63;;
19084;SDS011;9675;51.538;6.728;2024-02-04T13:49:07;5.00;;;3.50;;
19084;SDS011;9675;51.538;6.728;2024-02-04T13:51:34;5.80;;;4.20;;
19084;SDS011;9675;51.538;6.728;2024-02-04T13:54:02;5.73;;;3.20;;
19084;SDS011;9675;51.538;6.728;2024-02-04T13:56:30;6.57;;;3.93;;
19084;SDS011;9675;51.538;6.728;2024-02-04T13:58:58;2.90;;;1.93;;
19084;SDS011;9675;51.538;6.728;2024-02-04T14:01:26;5.13;;;3.47;;
19084;SDS011;9675;51.538;6.728;2024-02-04T14:03:53;7.57;;;3.90;;
19084;SDS011;9675;51.538;6.728;2024-02-04T14:06:20;4.40;;;2.80;;
19084;SDS011;9675;51.538;6.728;2024-02-04T14:08:47;5.63;;;3.90;;
19084;SDS011;9675;51.538;6.728;2024-02-04T14:11:14;9.50;;;5.50;;
19084;SDS011;9675;51.538;6.728;2024-02-04T14:13:43;15.50;;;10.13;;
19084;SDS011;9675;51.538;6.728;2024-02-04T14:16:10;8.77;;;5.10;;
19084;SDS011;9675;51.538;6.728;2024-02-04T14:18:37;6.30;;;3.87;;
19084;SDS011;9675;51.538;6.728;2024-02-04T14:21:05;5.60;;;4.10;;
19084;SDS011;9675;51.538;6.728;2024-02-04T14:23:34;6.00;;;3.60;;
19084;SDS011;9675;51.538;6.728;2024-02-04T14:26:02;6.97;;;3.57;;
19084;SDS011;9675;51.538;6.728;2024-02-04T14:28:31;9.40;;;5.67;;
19084;SDS011;9675;51.538;6.728;2024-02-04T14:31:02;7.50;;;4.87;;
19084;SDS011;9675;51.538;6.728;2024-02-04T14:33:29;5.27;;;3.03;;
19084;SDS011;9675;51.538;6.728;2024-02-04T14:35:56;3.77;;;2.57;;
19084;SDS011;9675;51.538;6.728;2024-02-04T14:38:25;7.40;;;4.60;;
19084;SDS011;9675;51.538;6.728;2024-02-04T14:40:52;7.27;;;5.03;;
19084;SDS011;9675;51.538;6.728;2024-02-04T14:43:19;8.77;;;4.90;;
19084;SDS011;9675;51.538;6.728;2024-02-04T14:45:48;8.47;;;5.43;;
19084;SDS011;9675;51.538;6.728;2024-02-04T14:48:17;13.47;;;5.67;;
19084;SDS011;9675;51.538;6.728;2024-02-04T14:50:44;10.87;;;5.53;;
19084;SDS011;9675;51.538;6.728;2024-02-04T14:53:12;8.87;;;5.50;;
19084;SDS011;9675;51.538;6.728;2024-02-04T14:55:39;7.93;;;4.43;;
19084;SDS011;9675;51.538;6.728;2024-02-04T14:58:06;10.00;;;4.77;;
19084;SDS011;9675;51.538;6.728;2024-02-04T15:00:33;10.17;;;5.37;;
19084;SDS011;9675;51.538;6.728;2024-02-04T15:03:00;10.20;;;4.73;;
19084;SDS011;9675;51.538;6.728;2024-02-04T15:05:28;9.17;;;4.90;;